sensor_id;sensor_type;location;lat;lon;timestamp;P1;durP1;ratioP1;P2;durP2;ratioP2
36327;SDS011;22354;50.012;8.264;2022-07-06T00:02:12;2.07;;;1.27;;
36327;SDS011;22354;50.012;8.264;2022-07-06T00:04:38;5.53;;;1.57;;
36327;SDS011;22354;50.012;8.264;2022-07-06T00:07:03;2.30;;;1.10;;
36327;SDS011;22354;50.012;8.264;2022-07-06T00:09:28;2.53;;;1.57;;
36327;SDS011;22354;50.012;8.264;2022-07-06T00:11:54;2.60;;;1.40;;
36327;SDS011;22354;50.012;8.264;2022-07-06T00:14:19;3.27;;;1.30;;
36327;SDS011;22354;50.012;8.264;2022-07-06T00:16:44;3.23;;;1.83;;
36327;SDS011;22354;50.012;8.264;2022-07-06T00:19:09;3.20;;;1.50;;
36327;SDS011;22354;50.012;8.264;2022-07-06T00:21:35;4.97;;;1.73;;
36327;SDS011;22354;50.012;8.264;2022-07-06T00:24:00;5.93;;;1.80;;
36327;SDS011;22354;50.012;8.264;2022-07-06T00:26:25;2.58;;;1.38;;
36327;SDS011;22354;50.012;8.264;2022-07-06T00:28:51;4.13;;;1.33;;
36327;SDS011;22354;50.012;8.264;2022-07-06T00:31:16;2.43;;;1.40;;
36327;SDS011;22354;50.012;8.264;2022-07-06T00:33:41;2.63;;;1.30;;
36327;SDS011;22354;50.012;8.264;2022-07-06T00:36:07;3.90;;;1.37;;
36327;SDS011;22354;50.012;8.264;2022-07-06T00:38:32;2.00;;;1.40;;
36327;SDS011;22354;50.012;8.264;2022-07-06T00:40:57;3.67;;;1.30;;
36327;SDS011;22354;50.012;8.264;2022-07-06T00:43:22;3.63;;;1.40;;
36327;SDS011;22354;50.012;8.264;2022-07-06T00:45:48;3.43;;;1.57;;
36327;SDS011;22354;50.012;8.264;2022-07-06T00:48:13;3.47;;;1.20;;
36327;SDS011;22354;50.012;8.264;2022-07-06T00:50:38;2.47;;;1.20;;
36327;SDS011;22354;50.012;8.264;2022-07-06T00:53:05;4.47;;;1.30;;
36327;SDS011;22354;50.012;8.264;2022-07-06T00:55:32;4.45;;;1.45;;
36327;SDS011;22354;50.012;8.264;2022-07-06T00:58:02;6.75;;;1.50;;
36327;SDS011;22354;50.012;8.264;2022-07-06T01:00:29;5.72;;;1.27;;
36327;SDS011;22354;50.012;8.264;2022-07-06T01:02:55;2.53;;;1.10;;
36327;SDS011;22354;50.012;8.264;2022-07-06T01:05:21;6.93;;;1.30;;
36327;SDS011;22354;50.012;8.264;2022-07-06T01:07:48;2.78;;;1.30;;
36327;SDS011;22354;50.012;8.264;2022-07-06T01:10:16;2.63;;;1.23;;
36327;SDS011;22354;50.012;8.264;2022-07-06T01:12:43;1.88;;;1.02;;
36327;SDS011;22354;50.012;8.264;2022-07-06T01:15:10;5.32;;;1.30;;
36327;SDS011;22354;50.012;8.264;2022-07-06T01:17:41;3.88;;;1.20;;
36327;SDS011;22354;50.012;8.264;2022-07-06T01:20:14;5.13;;;1.25;;
36327;SDS011;22354;50.012;8.264;2022-07-06T01:22:43;2.50;;;1.00;;
36327;SDS011;22354;50.012;8.264;2022-07-06T01:25:10;2.05;;;1.00;;
36327;SDS011;22354;50.012;8.264;2022-07-06T01:27:36;3.03;;;1.02;;
36327;SDS011;22354;50.012;8.264;2022-07-06T01:30:07;3.33;;;1.20;;
36327;SDS011;22354;50.012;8.264;2022-07-06T01:32:35;3.10;;;1.20;;
36327;SDS011;22354;50.012;8.264;2022-07-06T01:35:02;5.68;;;1.17;;
36327;SDS011;22354;50.012;8.264;2022-07-06T01:37:28;6.57;;;1.30;;
36327;SDS011;22354;50.012;8.264;2022-07-06T01:39:53;2.77;;;1.37;;
36327;SDS011;22354;50.012;8.264;2022-07-06T01:42:22;1.52;;;1.00;;
36327;SDS011;22354;50.012;8.264;2022-07-06T01:44:48;2.80;;;1.30;;
36327;SDS011;22354;50.012;8.264;2022-07-06T01:47:13;1.47;;;1.10;;
36327;SDS011;22354;50.012;8.264;2022-07-06T01:49:38;4.30;;;1.30;;
36327;SDS011;22354;50.012;8.264;2022-07-06T01:52:03;2.50;;;1.20;;
36327;SDS011;22354;50.012;8.264;2022-07-06T01:54:29;4.45;;;1.00;;
36327;SDS011;22354;50.012;8.264;2022-07-06T01:56:54;2.65;;;1.02;;
36327;SDS011;22354;50.012;8.264;2022-07-06T01:59:20;3.00;;;1.03;;
36327;SDS011;22354;50.012;8.264;2022-07-06T02:01:45;1.20;;;1.10;;
36327;SDS011;22354;50.012;8.264;2022-07-06T02:04:10;2.53;;;1.10;;
36327;SDS011;22354;50.012;8.264;2022-07-06T02:06:35;1.87;;;1.00;;
36327;SDS011;22354;50.012;8.264;2022-07-06T02:09:01;4.53;;;1.33;;
36327;SDS011;22354;50.012;8.264;2022-07-06T02:11:26;2.30;;;1.23;;
36327;SDS011;22354;50.012;8.264;2022-07-06T02:13:53;3.20;;;1.20;;
36327;SDS011;22354;50.012;8.264;2022-07-06T02:16:18;1.73;;;1.00;;
36327;SDS011;22354;50.012;8.264;2022-07-06T02:18:43;2.73;;;1.10;;
36327;SDS011;22354;50.012;8.264;2022-07-06T02:21:09;3.10;;;1.20;;
36327;SDS011;22354;50.012;8.264;2022-07-06T02:23:34;1.97;;;0.87;;
36327;SDS011;22354;50.012;8.264;2022-07-06T02:26:00;1.40;;;1.00;;
36327;SDS011;22354;50.012;8.264;2022-07-06T02:28:25;2.53;;;1.27;;
36327;SDS011;22354;50.012;8.264;2022-07-06T02:30:50;2.88;;;1.08;;
36327;SDS011;22354;50.012;8.264;2022-07-06T02:33:15;2.95;;;1.15;;
36327;SDS011;22354;50.012;8.264;2022-07-06T02:35:41;4.47;;;1.23;;
36327;SDS011;22354;50.012;8.264;2022-07-06T02:38:08;5.95;;;1.10;;
36327;SDS011;22354;50.012;8.264;2022-07-06T02:40:34;1.47;;;1.07;;
36327;SDS011;22354;50.012;8.264;2022-07-06T02:43:00;7.70;;;1.33;;
36327;SDS011;22354;50.012;8.264;2022-07-06T02:45:25;2.87;;;1.40;;
36327;SDS011;22354;50.012;8.264;2022-07-06T02:47:50;2.20;;;1.20;;
36327;SDS011;22354;50.012;8.264;2022-07-06T02:50:16;2.10;;;1.27;;
36327;SDS011;22354;50.012;8.264;2022-07-06T02:52:41;4.18;;;1.40;;
36327;SDS011;22354;50.012;8.264;2022-07-06T02:55:07;2.37;;;1.23;;
36327;SDS011;22354;50.012;8.264;2022-07-06T02:57:32;8.40;;;1.30;;
36327;SDS011;22354;50.012;8.264;2022-07-06T02:59:57;2.80;;;1.10;;
36327;SDS011;22354;50.012;8.264;2022-07-06T03:02:23;1.33;;;1.10;;
36327;SDS011;22354;50.012;8.264;2022-07-06T03:04:48;1.80;;;1.20;;
36327;SDS011;22354;50.012;8.264;2022-07-06T03:07:14;3.17;;;1.33;;
36327;SDS011;22354;50.012;8.264;2022-07-06T03:09:39;5.30;;;1.40;;
36327;SDS011;22354;50.012;8.264;2022-07-06T03:12:05;1.93;;;1.47;;
36327;SDS011;22354;50.012;8.264;2022-07-06T03:14:30;4.57;;;1.65;;
36327;SDS011;22354;50.012;8.264;2022-07-06T03:16:56;4.13;;;1.60;;
36327;SDS011;22354;50.012;8.264;2022-07-06T03:19:21;3.13;;;1.50;;
36327;SDS011;22354;50.012;8.264;2022-07-06T03:21:46;5.07;;;1.77;;
36327;SDS011;22354;50.012;8.264;2022-07-06T03:24:12;4.03;;;1.60;;
36327;SDS011;22354;50.012;8.264;2022-07-06T03:26:37;5.83;;;1.50;;
36327;SDS011;22354;50.012;8.264;2022-07-06T03:29:02;5.93;;;1.87;;
36327;SDS011;22354;50.012;8.264;2022-07-06T03:31:27;3.47;;;1.60;;
36327;SDS011;22354;50.012;8.264;2022-07-06T03:33:53;3.53;;;1.60;;
36327;SDS011;22354;50.012;8.264;2022-07-06T03:36:18;5.73;;;1.87;;
36327;SDS011;22354;50.012;8.264;2022-07-06T03:38:43;4.13;;;1.50;;
36327;SDS011;22354;50.012;8.264;2022-07-06T03:41:09;5.03;;;1.83;;
36327;SDS011;22354;50.012;8.264;2022-07-06T03:43:34;6.95;;;2.22;;
36327;SDS011;22354;50.012;8.264;2022-07-06T03:45:59;8.77;;;2.00;;
36327;SDS011;22354;50.012;8.264;2022-07-06T03:48:24;4.43;;;2.20;;
36327;SDS011;22354;50.012;8.264;2022-07-06T03:50:50;4.77;;;1.90;;
36327;SDS011;22354;50.012;8.264;2022-07-06T03:53:15;3.90;;;1.97;;
36327;SDS011;22354;50.012;8.264;2022-07-06T03:55:40;3.73;;;1.77;;
36327;SDS011;22354;50.012;8.264;2022-07-06T03:58:05;6.93;;;2.83;;
36327;SDS011;22354;50.012;8.264;2022-07-06T04:00:31;6.60;;;2.20;;
36327;SDS011;22354;50.012;8.264;2022-07-06T04:02:56;7.13;;;2.13;;
36327;SDS011;22354;50.012;8.264;2022-07-06T04:05:21;8.10;;;2.33;;
36327;SDS011;22354;50.012;8.264;2022-07-06T04:07:47;5.13;;;2.63;;
36327;SDS011;22354;50.012;8.264;2022-07-06T04:10:14;4.88;;;2.20;;
36327;SDS011;22354;50.012;8.264;2022-07-06T04:12:42;3.80;;;2.23;;
36327;SDS011;22354;50.012;8.264;2022-07-06T04:15:09;5.13;;;2.20;;
36327;SDS011;22354;50.012;8.264;2022-07-06T04:17:35;7.50;;;2.40;;
36327;SDS011;22354;50.012;8.264;2022-07-06T04:20:18;4.60;;;2.10;;
36327;SDS011;22354;50.012;8.264;2022-07-06T04:22:47;5.97;;;2.53;;
36327;SDS011;22354;50.012;8.264;2022-07-06T04:25:13;6.43;;;2.67;;
36327;SDS011;22354;50.012;8.264;2022-07-06T04:27:38;4.47;;;1.83;;
36327;SDS011;22354;50.012;8.264;2022-07-06T04:30:04;4.83;;;2.40;;
36327;SDS011;22354;50.012;8.264;2022-07-06T04:32:30;5.75;;;2.30;;
36327;SDS011;22354;50.012;8.264;2022-07-06T04:34:56;3.90;;;1.90;;
36327;SDS011;22354;50.012;8.264;2022-07-06T04:37:21;4.43;;;2.13;;
36327;SDS011;22354;50.012;8.264;2022-07-06T04:39:47;4.63;;;1.97;;
36327;SDS011;22354;50.012;8.264;2022-07-06T04:42:12;5.63;;;2.23;;
36327;SDS011;22354;50.012;8.264;2022-07-06T04:44:37;4.70;;;2.00;;
36327;SDS011;22354;50.012;8.264;2022-07-06T04:47:02;4.10;;;2.20;;
36327;SDS011;22354;50.012;8.264;2022-07-06T04:49:28;5.72;;;2.15;;
36327;SDS011;22354;50.012;8.264;2022-07-06T04:51:53;7.33;;;2.40;;
36327;SDS011;22354;50.012;8.264;2022-07-06T04:54:18;3.97;;;1.70;;
36327;SDS011;22354;50.012;8.264;2022-07-06T04:56:44;5.13;;;2.40;;
36327;SDS011;22354;50.012;8.264;2022-07-06T04:59:09;6.87;;;2.33;;
36327;SDS011;22354;50.012;8.264;2022-07-06T05:01:34;10.00;;;2.33;;
36327;SDS011;22354;50.012;8.264;2022-07-06T05:03:59;5.27;;;2.40;;
36327;SDS011;22354;50.012;8.264;2022-07-06T05:06:25;7.73;;;2.07;;
36327;SDS011;22354;50.012;8.264;2022-07-06T05:08:50;3.70;;;2.20;;
36327;SDS011;22354;50.012;8.264;2022-07-06T05:11:15;6.83;;;1.83;;
36327;SDS011;22354;50.012;8.264;2022-07-06T05:13:41;5.30;;;2.40;;
36327;SDS011;22354;50.012;8.264;2022-07-06T05:16:06;3.80;;;2.10;;
36327;SDS011;22354;50.012;8.264;2022-07-06T05:18:31;7.25;;;2.17;;
36327;SDS011;22354;50.012;8.264;2022-07-06T05:20:57;3.83;;;1.50;;
36327;SDS011;22354;50.012;8.264;2022-07-06T05:23:22;5.57;;;1.77;;
36327;SDS011;22354;50.012;8.264;2022-07-06T05:25:47;5.67;;;1.77;;
36327;SDS011;22354;50.012;8.264;2022-07-06T05:28:12;7.40;;;2.37;;
36327;SDS011;22354;50.012;8.264;2022-07-06T05:30:38;6.57;;;1.83;;
36327;SDS011;22354;50.012;8.264;2022-07-06T05:33:03;4.97;;;2.07;;
36327;SDS011;22354;50.012;8.264;2022-07-06T05:35:28;5.10;;;2.03;;
36327;SDS011;22354;50.012;8.264;2022-07-06T05:37:54;6.70;;;1.97;;
36327;SDS011;22354;50.012;8.264;2022-07-06T05:40:19;4.90;;;1.95;;
36327;SDS011;22354;50.012;8.264;2022-07-06T05:42:45;5.63;;;2.08;;
36327;SDS011;22354;50.012;8.264;2022-07-06T05:45:10;5.72;;;1.80;;
36327;SDS011;22354;50.012;8.264;2022-07-06T05:47:35;3.70;;;1.90;;
36327;SDS011;22354;50.012;8.264;2022-07-06T05:50:19;6.78;;;2.47;;
36327;SDS011;22354;50.012;8.264;2022-07-06T05:52:50;3.90;;;1.80;;
36327;SDS011;22354;50.012;8.264;2022-07-06T05:55:29;6.35;;;2.03;;
36327;SDS011;22354;50.012;8.264;2022-07-06T05:57:55;7.33;;;1.97;;
36327;SDS011;22354;50.012;8.264;2022-07-06T06:00:21;4.97;;;1.93;;
36327;SDS011;22354;50.012;8.264;2022-07-06T06:02:47;9.10;;;2.60;;
36327;SDS011;22354;50.012;8.264;2022-07-06T06:05:13;4.03;;;1.60;;
36327;SDS011;22354;50.012;8.264;2022-07-06T06:07:39;3.95;;;1.60;;
36327;SDS011;22354;50.012;8.264;2022-07-06T06:10:09;7.50;;;1.80;;
36327;SDS011;22354;50.012;8.264;2022-07-06T06:12:36;5.22;;;1.50;;
36327;SDS011;22354;50.012;8.264;2022-07-06T06:15:02;5.72;;;2.08;;
36327;SDS011;22354;50.012;8.264;2022-07-06T06:17:28;4.97;;;1.73;;
36327;SDS011;22354;50.012;8.264;2022-07-06T06:19:53;8.37;;;1.97;;
36327;SDS011;22354;50.012;8.264;2022-07-06T06:22:18;7.63;;;1.63;;
36327;SDS011;22354;50.012;8.264;2022-07-06T06:24:44;8.27;;;1.70;;
36327;SDS011;22354;50.012;8.264;2022-07-06T06:27:09;4.90;;;1.60;;
36327;SDS011;22354;50.012;8.264;2022-07-06T06:29:34;4.78;;;1.80;;
36327;SDS011;22354;50.012;8.264;2022-07-06T06:32:00;8.07;;;2.07;;
36327;SDS011;22354;50.012;8.264;2022-07-06T06:34:25;4.27;;;1.73;;
36327;SDS011;22354;50.012;8.264;2022-07-06T06:36:50;8.00;;;1.97;;
36327;SDS011;22354;50.012;8.264;2022-07-06T06:39:16;6.90;;;1.53;;
36327;SDS011;22354;50.012;8.264;2022-07-06T06:41:41;3.87;;;1.67;;
36327;SDS011;22354;50.012;8.264;2022-07-06T06:44:06;3.87;;;1.70;;
36327;SDS011;22354;50.012;8.264;2022-07-06T06:46:32;5.10;;;2.00;;
36327;SDS011;22354;50.012;8.264;2022-07-06T06:48:57;3.20;;;1.60;;
36327;SDS011;22354;50.012;8.264;2022-07-06T06:51:22;10.20;;;2.10;;
36327;SDS011;22354;50.012;8.264;2022-07-06T06:53:48;4.37;;;1.50;;
36327;SDS011;22354;50.012;8.264;2022-07-06T06:56:13;7.10;;;1.50;;
36327;SDS011;22354;50.012;8.264;2022-07-06T06:58:38;4.27;;;1.70;;
36327;SDS011;22354;50.012;8.264;2022-07-06T07:01:04;4.60;;;1.50;;
36327;SDS011;22354;50.012;8.264;2022-07-06T07:03:29;5.70;;;1.38;;
36327;SDS011;22354;50.012;8.264;2022-07-06T07:05:55;2.97;;;1.40;;
36327;SDS011;22354;50.012;8.264;2022-07-06T07:08:20;2.42;;;1.42;;
36327;SDS011;22354;50.012;8.264;2022-07-06T07:10:46;4.20;;;1.40;;
36327;SDS011;22354;50.012;8.264;2022-07-06T07:13:11;2.20;;;1.43;;
36327;SDS011;22354;50.012;8.264;2022-07-06T07:15:36;3.67;;;1.20;;
36327;SDS011;22354;50.012;8.264;2022-07-06T07:18:02;4.43;;;1.10;;
36327;SDS011;22354;50.012;8.264;2022-07-06T07:20:27;5.43;;;1.53;;
36327;SDS011;22354;50.012;8.264;2022-07-06T07:22:54;3.55;;;1.48;;
36327;SDS011;22354;50.012;8.264;2022-07-06T07:25:20;5.40;;;1.50;;
36327;SDS011;22354;50.012;8.264;2022-07-06T07:27:45;8.90;;;1.50;;
36327;SDS011;22354;50.012;8.264;2022-07-06T07:30:10;3.67;;;1.20;;
36327;SDS011;22354;50.012;8.264;2022-07-06T07:32:36;3.00;;;1.17;;
36327;SDS011;22354;50.012;8.264;2022-07-06T07:35:02;3.77;;;1.20;;
36327;SDS011;22354;50.012;8.264;2022-07-06T07:37:27;3.65;;;1.40;;
36327;SDS011;22354;50.012;8.264;2022-07-06T07:39:53;3.50;;;1.10;;
36327;SDS011;22354;50.012;8.264;2022-07-06T07:42:18;2.83;;;1.33;;
36327;SDS011;22354;50.012;8.264;2022-07-06T07:44:43;5.63;;;1.60;;
36327;SDS011;22354;50.012;8.264;2022-07-06T07:47:09;2.33;;;1.30;;
36327;SDS011;22354;50.012;8.264;2022-07-06T07:49:34;5.83;;;1.40;;
36327;SDS011;22354;50.012;8.264;2022-07-06T07:51:59;4.47;;;1.23;;
36327;SDS011;22354;50.012;8.264;2022-07-06T07:54:24;4.93;;;1.27;;
36327;SDS011;22354;50.012;8.264;2022-07-06T07:56:50;3.50;;;1.20;;
36327;SDS011;22354;50.012;8.264;2022-07-06T07:59:15;4.90;;;1.40;;
36327;SDS011;22354;50.012;8.264;2022-07-06T08:01:40;5.40;;;1.40;;
36327;SDS011;22354;50.012;8.264;2022-07-06T08:04:05;4.33;;;1.37;;
36327;SDS011;22354;50.012;8.264;2022-07-06T08:06:31;7.00;;;1.10;;
36327;SDS011;22354;50.012;8.264;2022-07-06T08:08:56;4.00;;;1.10;;
36327;SDS011;22354;50.012;8.264;2022-07-06T08:11:21;2.80;;;0.90;;
36327;SDS011;22354;50.012;8.264;2022-07-06T08:13:47;3.67;;;1.70;;
36327;SDS011;22354;50.012;8.264;2022-07-06T08:16:12;1.93;;;1.10;;
36327;SDS011;22354;50.012;8.264;2022-07-06T08:18:38;4.05;;;1.35;;
36327;SDS011;22354;50.012;8.264;2022-07-06T08:21:03;2.07;;;1.00;;
36327;SDS011;22354;50.012;8.264;2022-07-06T08:23:29;3.30;;;1.10;;
36327;SDS011;22354;50.012;8.264;2022-07-06T08:25:54;4.63;;;1.23;;
36327;SDS011;22354;50.012;8.264;2022-07-06T08:28:20;5.70;;;1.23;;
36327;SDS011;22354;50.012;8.264;2022-07-06T08:30:46;3.05;;;1.15;;
36327;SDS011;22354;50.012;8.264;2022-07-06T08:33:12;3.90;;;1.47;;
36327;SDS011;22354;50.012;8.264;2022-07-06T08:35:38;3.75;;;1.30;;
36327;SDS011;22354;50.012;8.264;2022-07-06T08:38:03;4.20;;;1.37;;
36327;SDS011;22354;50.012;8.264;2022-07-06T08:40:31;4.13;;;1.20;;
36327;SDS011;22354;50.012;8.264;2022-07-06T08:42:59;2.17;;;1.10;;
36327;SDS011;22354;50.012;8.264;2022-07-06T08:45:25;3.55;;;1.25;;
36327;SDS011;22354;50.012;8.264;2022-07-06T08:47:51;3.37;;;1.00;;
36327;SDS011;22354;50.012;8.264;2022-07-06T08:50:19;2.20;;;1.50;;
36327;SDS011;22354;50.012;8.264;2022-07-06T08:52:45;5.33;;;1.07;;
36327;SDS011;22354;50.012;8.264;2022-07-06T08:55:12;7.03;;;1.47;;
36327;SDS011;22354;50.012;8.264;2022-07-06T08:57:39;3.33;;;1.20;;
36327;SDS011;22354;50.012;8.264;2022-07-06T09:00:05;4.40;;;1.00;;
36327;SDS011;22354;50.012;8.264;2022-07-06T09:02:34;5.38;;;1.10;;
36327;SDS011;22354;50.012;8.264;2022-07-06T09:04:59;3.33;;;1.30;;
36327;SDS011;22354;50.012;8.264;2022-07-06T09:07:27;5.25;;;1.13;;
36327;SDS011;22354;50.012;8.264;2022-07-06T09:09:54;2.00;;;1.08;;
36327;SDS011;22354;50.012;8.264;2022-07-06T09:12:19;6.00;;;1.00;;
36327;SDS011;22354;50.012;8.264;2022-07-06T09:14:44;4.13;;;1.43;;
36327;SDS011;22354;50.012;8.264;2022-07-06T09:17:10;4.43;;;1.10;;
36327;SDS011;22354;50.012;8.264;2022-07-06T09:19:37;4.00;;;1.35;;
36327;SDS011;22354;50.012;8.264;2022-07-06T09:22:02;3.80;;;1.00;;
36327;SDS011;22354;50.012;8.264;2022-07-06T09:24:28;3.58;;;1.30;;
36327;SDS011;22354;50.012;8.264;2022-07-06T09:26:56;1.75;;;1.25;;
36327;SDS011;22354;50.012;8.264;2022-07-06T09:29:30;3.15;;;1.10;;
36327;SDS011;22354;50.012;8.264;2022-07-06T09:31:57;2.67;;;1.65;;
36327;SDS011;22354;50.012;8.264;2022-07-06T09:34:24;2.50;;;1.20;;
36327;SDS011;22354;50.012;8.264;2022-07-06T09:36:49;3.60;;;1.50;;
36327;SDS011;22354;50.012;8.264;2022-07-06T09:41:57;4.00;;;2.10;;
36327;SDS011;22354;50.012;8.264;2022-07-06T09:46:55;3.60;;;1.93;;
36327;SDS011;22354;50.012;8.264;2022-07-06T09:49:22;4.80;;;2.00;;
36327;SDS011;22354;50.012;8.264;2022-07-06T09:51:49;2.53;;;1.88;;
36327;SDS011;22354;50.012;8.264;2022-07-06T09:54:16;4.53;;;2.10;;
36327;SDS011;22354;50.012;8.264;2022-07-06T09:56:43;2.88;;;2.17;;
36327;SDS011;22354;50.012;8.264;2022-07-06T09:59:13;5.17;;;2.00;;
36327;SDS011;22354;50.012;8.264;2022-07-06T10:01:40;3.15;;;2.17;;
36327;SDS011;22354;50.012;8.264;2022-07-06T10:04:07;4.38;;;2.35;;
36327;SDS011;22354;50.012;8.264;2022-07-06T10:06:34;4.80;;;2.30;;
36327;SDS011;22354;50.012;8.264;2022-07-06T10:08:59;6.43;;;2.27;;
36327;SDS011;22354;50.012;8.264;2022-07-06T10:11:26;2.95;;;1.98;;
36327;SDS011;22354;50.012;8.264;2022-07-06T10:13:57;3.63;;;1.90;;
36327;SDS011;22354;50.012;8.264;2022-07-06T10:16:23;2.83;;;1.80;;
36327;SDS011;22354;50.012;8.264;2022-07-06T10:18:49;3.40;;;1.95;;
36327;SDS011;22354;50.012;8.264;2022-07-06T10:21:16;2.60;;;1.63;;
36327;SDS011;22354;50.012;8.264;2022-07-06T10:23:42;2.63;;;1.63;;
36327;SDS011;22354;50.012;8.264;2022-07-06T10:26:08;2.42;;;1.40;;
36327;SDS011;22354;50.012;8.264;2022-07-06T10:28:34;1.85;;;1.52;;
36327;SDS011;22354;50.012;8.264;2022-07-06T10:31:00;3.40;;;1.60;;
36327;SDS011;22354;50.012;8.264;2022-07-06T10:33:25;4.03;;;1.53;;
36327;SDS011;22354;50.012;8.264;2022-07-06T10:35:51;5.20;;;1.13;;
36327;SDS011;22354;50.012;8.264;2022-07-06T10:38:17;2.40;;;1.50;;
36327;SDS011;22354;50.012;8.264;2022-07-06T10:40:44;1.75;;;1.40;;
36327;SDS011;22354;50.012;8.264;2022-07-06T10:43:31;5.65;;;1.50;;
36327;SDS011;22354;50.012;8.264;2022-07-06T10:46:10;1.67;;;1.27;;
36327;SDS011;22354;50.012;8.264;2022-07-06T10:48:42;4.68;;;1.35;;
36327;SDS011;22354;50.012;8.264;2022-07-06T10:51:10;1.98;;;1.40;;
36327;SDS011;22354;50.012;8.264;2022-07-06T10:53:37;2.40;;;1.30;;
36327;SDS011;22354;50.012;8.264;2022-07-06T10:56:07;3.37;;;1.07;;
36327;SDS011;22354;50.012;8.264;2022-07-06T10:58:35;1.40;;;1.30;;
36327;SDS011;22354;50.012;8.264;2022-07-06T11:01:03;4.00;;;1.00;;
36327;SDS011;22354;50.012;8.264;2022-07-06T11:03:35;1.65;;;0.98;;
36327;SDS011;22354;50.012;8.264;2022-07-06T11:06:12;1.30;;;0.95;;
36327;SDS011;22354;50.012;8.264;2022-07-06T11:14:00;3.10;;;0.93;;
36327;SDS011;22354;50.012;8.264;2022-07-06T11:17:14;2.67;;;1.20;;
36327;SDS011;22354;50.012;8.264;2022-07-06T11:19:18;1.50;;;0.82;;
36327;SDS011;22354;50.012;8.264;2022-07-06T11:21:52;2.30;;;0.90;;
36327;SDS011;22354;50.012;8.264;2022-07-06T11:24:22;2.50;;;0.85;;
36327;SDS011;22354;50.012;8.264;2022-07-06T11:26:50;0.80;;;0.80;;
36327;SDS011;22354;50.012;8.264;2022-07-06T11:29:17;1.48;;;0.60;;
36327;SDS011;22354;50.012;8.264;2022-07-06T11:31:49;2.67;;;0.63;;
36327;SDS011;22354;50.012;8.264;2022-07-06T11:34:27;2.28;;;0.95;;
36327;SDS011;22354;50.012;8.264;2022-07-06T11:36:55;2.13;;;1.17;;
36327;SDS011;22354;50.012;8.264;2022-07-06T11:39:22;1.45;;;0.70;;
36327;SDS011;22354;50.012;8.264;2022-07-06T11:41:47;2.20;;;0.80;;
36327;SDS011;22354;50.012;8.264;2022-07-06T11:44:12;1.90;;;0.90;;
36327;SDS011;22354;50.012;8.264;2022-07-06T11:46:38;2.43;;;0.90;;
36327;SDS011;22354;50.012;8.264;2022-07-06T11:49:04;7.87;;;1.20;;
36327;SDS011;22354;50.012;8.264;2022-07-06T11:51:32;1.63;;;0.82;;
36327;SDS011;22354;50.012;8.264;2022-07-06T11:54:18;1.08;;;0.68;;
36327;SDS011;22354;50.012;8.264;2022-07-06T11:56:45;4.03;;;0.90;;
36327;SDS011;22354;50.012;8.264;2022-07-06T11:59:11;3.75;;;1.00;;
36327;SDS011;22354;50.012;8.264;2022-07-06T12:01:36;1.80;;;1.00;;
36327;SDS011;22354;50.012;8.264;2022-07-06T12:04:06;1.95;;;0.90;;
36327;SDS011;22354;50.012;8.264;2022-07-06T12:06:32;2.10;;;0.82;;
36327;SDS011;22354;50.012;8.264;2022-07-06T12:08:59;6.25;;;0.93;;
36327;SDS011;22354;50.012;8.264;2022-07-06T12:11:26;5.53;;;1.15;;
36327;SDS011;22354;50.012;8.264;2022-07-06T12:13:54;2.08;;;0.93;;
36327;SDS011;22354;50.012;8.264;2022-07-06T12:16:21;4.65;;;0.80;;
36327;SDS011;22354;50.012;8.264;2022-07-06T12:18:49;8.27;;;1.25;;
36327;SDS011;22354;50.012;8.264;2022-07-06T12:21:16;2.90;;;0.83;;
36327;SDS011;22354;50.012;8.264;2022-07-06T12:23:50;5.28;;;1.10;;
36327;SDS011;22354;50.012;8.264;2022-07-06T12:26:18;1.45;;;0.85;;
36327;SDS011;22354;50.012;8.264;2022-07-06T12:28:45;5.10;;;0.95;;
36327;SDS011;22354;50.012;8.264;2022-07-06T12:31:33;3.25;;;1.00;;
36327;SDS011;22354;50.012;8.264;2022-07-06T12:34:00;2.92;;;1.00;;
36327;SDS011;22354;50.012;8.264;2022-07-06T12:36:26;2.38;;;1.20;;
36327;SDS011;22354;50.012;8.264;2022-07-06T12:38:51;6.33;;;1.00;;
36327;SDS011;22354;50.012;8.264;2022-07-06T12:41:33;0.93;;;0.80;;
36327;SDS011;22354;50.012;8.264;2022-07-06T12:49:01;1.33;;;0.90;;
36327;SDS011;22354;50.012;8.264;2022-07-06T12:51:28;3.47;;;0.97;;
36327;SDS011;22354;50.012;8.264;2022-07-06T12:54:11;2.15;;;0.80;;
36327;SDS011;22354;50.012;8.264;2022-07-06T12:56:37;3.45;;;1.00;;
36327;SDS011;22354;50.012;8.264;2022-07-06T12:59:21;1.58;;;0.90;;
36327;SDS011;22354;50.012;8.264;2022-07-06T13:01:48;2.15;;;1.00;;
36327;SDS011;22354;50.012;8.264;2022-07-06T13:04:13;2.53;;;1.10;;
36327;SDS011;22354;50.012;8.264;2022-07-06T13:06:38;2.23;;;1.00;;
36327;SDS011;22354;50.012;8.264;2022-07-06T13:09:04;1.90;;;1.00;;
36327;SDS011;22354;50.012;8.264;2022-07-06T13:11:29;1.30;;;1.00;;
36327;SDS011;22354;50.012;8.264;2022-07-06T13:13:55;4.23;;;1.20;;
36327;SDS011;22354;50.012;8.264;2022-07-06T13:16:20;3.23;;;1.07;;
36327;SDS011;22354;50.012;8.264;2022-07-06T13:18:49;3.90;;;0.98;;
36327;SDS011;22354;50.012;8.264;2022-07-06T13:21:14;2.63;;;1.20;;
36327;SDS011;22354;50.012;8.264;2022-07-06T13:23:39;3.30;;;1.40;;
36327;SDS011;22354;50.012;8.264;2022-07-06T13:26:05;2.80;;;1.03;;
36327;SDS011;22354;50.012;8.264;2022-07-06T13:28:30;5.80;;;1.50;;
36327;SDS011;22354;50.012;8.264;2022-07-06T13:30:55;3.73;;;1.03;;
36327;SDS011;22354;50.012;8.264;2022-07-06T13:33:21;4.93;;;1.13;;
36327;SDS011;22354;50.012;8.264;2022-07-06T13:35:46;3.23;;;1.00;;
36327;SDS011;22354;50.012;8.264;2022-07-06T13:38:11;2.33;;;1.10;;
36327;SDS011;22354;50.012;8.264;2022-07-06T13:40:36;2.83;;;1.27;;
36327;SDS011;22354;50.012;8.264;2022-07-06T13:43:02;2.07;;;0.87;;
36327;SDS011;22354;50.012;8.264;2022-07-06T13:45:27;1.90;;;0.90;;
36327;SDS011;22354;50.012;8.264;2022-07-06T13:47:52;1.90;;;1.00;;
36327;SDS011;22354;50.012;8.264;2022-07-06T13:50:18;2.38;;;0.82;;
36327;SDS011;22354;50.012;8.264;2022-07-06T13:52:43;1.35;;;0.70;;
36327;SDS011;22354;50.012;8.264;2022-07-06T13:55:08;1.55;;;1.00;;
36327;SDS011;22354;50.012;8.264;2022-07-06T13:57:34;5.35;;;1.48;;
36327;SDS011;22354;50.012;8.264;2022-07-06T14:00:00;1.63;;;0.80;;
36327;SDS011;22354;50.012;8.264;2022-07-06T14:02:25;1.73;;;0.80;;
36327;SDS011;22354;50.012;8.264;2022-07-06T14:04:50;2.00;;;0.77;;
36327;SDS011;22354;50.012;8.264;2022-07-06T14:07:15;3.10;;;1.23;;
36327;SDS011;22354;50.012;8.264;2022-07-06T14:09:41;2.53;;;0.93;;
36327;SDS011;22354;50.012;8.264;2022-07-06T14:12:06;1.73;;;1.00;;
36327;SDS011;22354;50.012;8.264;2022-07-06T14:14:32;2.60;;;0.80;;
36327;SDS011;22354;50.012;8.264;2022-07-06T14:16:57;3.90;;;1.03;;
36327;SDS011;22354;50.012;8.264;2022-07-06T14:19:23;2.90;;;1.23;;
36327;SDS011;22354;50.012;8.264;2022-07-06T14:21:48;2.30;;;1.30;;
36327;SDS011;22354;50.012;8.264;2022-07-06T14:24:14;3.43;;;1.30;;
36327;SDS011;22354;50.012;8.264;2022-07-06T14:26:39;3.47;;;1.57;;
36327;SDS011;22354;50.012;8.264;2022-07-06T14:29:05;3.63;;;1.35;;
36327;SDS011;22354;50.012;8.264;2022-07-06T14:31:30;4.20;;;1.25;;
36327;SDS011;22354;50.012;8.264;2022-07-06T14:33:55;2.75;;;1.10;;
36327;SDS011;22354;50.012;8.264;2022-07-06T14:36:20;2.90;;;1.20;;
36327;SDS011;22354;50.012;8.264;2022-07-06T14:38:46;1.60;;;0.90;;
36327;SDS011;22354;50.012;8.264;2022-07-06T14:41:11;3.23;;;1.00;;
36327;SDS011;22354;50.012;8.264;2022-07-06T14:43:36;3.53;;;1.20;;
36327;SDS011;22354;50.012;8.264;2022-07-06T14:46:02;5.67;;;1.20;;
36327;SDS011;22354;50.012;8.264;2022-07-06T14:48:27;3.40;;;1.13;;
36327;SDS011;22354;50.012;8.264;2022-07-06T14:50:52;2.20;;;0.80;;
36327;SDS011;22354;50.012;8.264;2022-07-06T14:53:18;5.03;;;1.48;;
36327;SDS011;22354;50.012;8.264;2022-07-06T14:55:43;5.05;;;1.40;;
36327;SDS011;22354;50.012;8.264;2022-07-06T14:58:08;1.65;;;1.55;;
36327;SDS011;22354;50.012;8.264;2022-07-06T15:00:34;3.22;;;1.70;;